Time;durP1;ratioP1;P1;durP2;ratioP2;P2;SDS_P1;SDS_P2;PMS_P1;PMS_P2;Temp;Humidity;BMP_temperature;BMP_pressure;BME280_temperature;BME280_humidity;BME280_pressure;Samples;Min_cycle;Max_cycle;Signal;HPM_P1;HPM_P2
2023/01/06 00:01:36;;;;;;;17.50;7.32;;;;;;;5.96;70.05;96478.88;5052646;28;20041;-63
2023/01/06 00:04:05;;;;;;;9.60;6.88;;;;;;;6.03;69.86;96488.28;5052527;28;20132;-64
2023/01/06 00:06:33;;;;;;;9.95;6.65;;;;;;;6.01;70.54;96487.44;5052589;28;20406;-62
2023/01/06 00:09:03;;;;;;;10.00;7.38;;;;;;;5.99;70.12;96494.41;5052562;28;20131;-61
2023/01/06 00:11:31;;;;;;;9.00;6.47;;;;;;;5.96;68.76;96493.63;5052455;28;20481;-62
2023/01/06 00:14:01;;;;;;;6.53;4.65;;;;;;;6.02;69.36;96501.31;5052518;28;20053;-63
2023/01/06 00:16:28;;;;;;;6.20;4.43;;;;;;;6.01;69.78;96500.44;5052362;28;20049;-63
2023/01/06 00:18:57;;;;;;;6.40;4.15;;;;;;;5.99;70.20;96512.59;5052493;28;20057;-62
2023/01/06 00:21:25;;;;;;;6.47;4.53;;;;;;;5.96;70.32;96509.22;5052354;28;20191;-63
2023/01/06 00:23:52;;;;;;;8.77;5.97;;;;;;;5.99;66.11;96519.53;5052465;28;20473;-61
2023/01/06 00:26:20;;;;;;;7.78;5.40;;;;;;;6.17;65.48;96515.75;5052227;28;20074;-61
2023/01/06 00:28:48;;;;;;;5.50;4.70;;;;;;;6.42;63.78;96521.25;5052264;28;20418;-63
2023/01/06 00:31:20;;;;;;;4.93;3.70;;;;;;;6.57;63.57;96508.81;5052351;28;20090;-61
2023/01/06 00:33:48;;;;;;;4.57;3.40;;;;;;;6.82;62.12;96501.31;5052360;27;20502;-64
2023/01/06 00:36:16;;;;;;;4.72;3.35;;;;;;;7.00;62.15;96506.97;5052040;28;20045;-64
2023/01/06 00:38:43;;;;;;;3.47;2.30;;;;;;;7.13;61.60;96502.31;5051301;28;20410;-64
2023/01/06 00:43:53;;;;;;;3.47;2.53;;;;;;;7.59;60.26;96500.25;5052026;27;20049;-61
2023/01/06 00:46:25;;;;;;;2.10;1.90;;;;;;;7.74;59.81;96484.28;5051964;28;20054;-61
2023/01/06 00:48:53;;;;;;;2.47;2.10;;;;;;;7.94;59.58;96489.78;5051902;28;20055;-63
2023/01/06 00:51:21;;;;;;;3.22;2.25;;;;;;;8.08;58.73;96486.78;5051855;28;20052;-62
2023/01/06 00:53:49;;;;;;;3.78;2.63;;;;;;;8.21;60.36;96491.63;5051853;28;20490;-61
2023/01/06 00:56:16;;;;;;;2.65;2.10;;;;;;;8.21;58.90;96494.22;5051782;28;20059;-62
2023/01/06 00:58:44;;;;;;;2.70;2.10;;;;;;;8.28;58.34;96490.53;5051764;28;20045;-63
2023/01/06 01:01:12;;;;;;;3.05;2.22;;;;;;;8.36;58.06;96492.94;5051745;28;20091;-62
2023/01/06 01:03:41;;;;;;;2.35;2.15;;;;;;;8.44;58.28;96492.72;5051561;28;20049;-63
2023/01/06 01:06:10;;;;;;;5.82;2.40;;;;;;;8.50;57.96;96489.06;5051693;28;20079;-62
2023/01/06 01:08:38;;;;;;;3.10;2.17;;;;;;;8.54;57.25;96488.09;5051545;28;20055;-63
2023/01/06 01:11:08;;;;;;;3.20;2.30;;;;;;;8.64;56.62;96489.50;5051710;28;20478;-61
2023/01/06 01:13:36;;;;;;;4.45;2.92;;;;;;;8.76;56.39;96474.41;5051496;28;20053;-63
2023/01/06 01:16:05;;;;;;;4.18;2.88;;;;;;;8.86;56.23;96473.19;5051479;28;20084;-65
2023/01/06 01:18:33;;;;;;;3.58;2.90;;;;;;;8.98;56.77;96470.16;5051588;28;20049;-63
2023/01/06 01:21:02;;;;;;;2.38;1.83;;;;;;;9.07;55.40;96466.44;5051400;28;20081;-61
2023/01/06 01:23:30;;;;;;;1.42;1.10;;;;;;;9.17;54.74;96458.28;5051397;28;20053;-62
2023/01/06 01:25:58;;;;;;;1.42;0.93;;;;;;;9.28;54.77;96450.94;5051452;28;20045;-61
2023/01/06 01:28:25;;;;;;;1.10;1.00;;;;;;;9.42;54.21;96460.91;5051238;28;20056;-63
2023/01/06 01:31:00;;;;;;;1.30;1.20;;;;;;;9.56;53.82;96459.56;5051299;28;20467;-61
2023/01/06 01:33:29;;;;;;;1.00;1.00;;;;;;;9.66;53.69;96463.56;5051246;28;20490;-64
2023/01/06 01:35:56;;;;;;;1.20;1.10;;;;;;;9.75;53.49;96462.38;5051083;28;20048;-62
2023/01/06 01:38:27;;;;;;;1.55;1.10;;;;;;;9.86;52.88;96433.25;5051212;28;20049;-63
2023/01/06 01:40:55;;;;;;;;;;;;;;;9.96;52.58;96439.84;5051470;28;20486;-62
2023/01/06 01:43:22;;;;;;;0.80;0.80;;;;;;;10.01;52.00;96439.66;5050961;28;20000;-61
2023/01/06 01:45:53;;;;;;;1.13;1.02;;;;;;;10.13;51.80;96433.13;5051117;28;20405;-61
2023/01/06 01:48:26;;;;;;;1.55;1.00;;;;;;;10.21;51.87;96454.59;5051012;28;20124;-62
2023/01/06 01:50:57;;;;;;;1.40;0.70;;;;;;;10.26;51.53;96445.75;5049792;28;20049;-64
2023/01/06 01:53:30;;;;;;;1.20;0.90;;;;;;;10.26;50.90;96450.97;5050911;28;20049;-66
2023/01/06 01:56:01;;;;;;;0.90;0.80;;;;;;;10.31;51.35;96446.41;5050830;28;20053;-64
2023/01/06 01:58:34;;;;;;;1.13;0.98;;;;;;;10.33;51.91;96444.59;5050832;28;20041;-62
2023/01/06 02:01:02;;;;;;;1.23;1.13;;;;;;;10.26;51.64;96441.34;5050801;28;20052;-66
2023/01/06 02:03:29;;;;;;;1.35;1.10;;;;;;;10.18;51.71;96432.97;5050839;28;20045;-64
2023/01/06 02:06:01;;;;;;;1.27;1.17;;;;;;;10.11;52.01;96432.31;5050756;28;20391;-64
2023/01/06 02:08:35;;;;;;;1.90;1.70;;;;;;;9.98;52.43;96421.50;5050760;28;20055;-66
2023/01/06 02:11:03;;;;;;;2.10;1.50;;;;;;;9.90;52.66;96434.00;5050743;28;20121;-65
2023/01/06 02:13:32;;;;;;;2.22;1.58;;;;;;;9.77;53.09;96450.13;5050720;28;20045;-65
2023/01/06 02:16:15;;;;;;;2.08;1.80;;;;;;;9.69;52.54;96447.78;5050565;28;20045;-61
2023/01/06 02:18:53;;;;;;;5.70;2.30;;;;;;;9.66;53.34;96453.09;5050524;28;20045;-64
2023/01/06 02:21:31;;;;;;;4.68;1.83;;;;;;;9.64;53.11;96443.63;5050531;28;20045;-64
2023/01/06 02:24:37;;;;;;;1.50;1.40;;;;;;;9.57;53.42;96438.63;5050646;28;20049;-65
2023/01/06 02:27:28;;;;;;;1.85;1.60;;;;;;;9.41;53.98;96445.28;5053041;28;20057;-65
2023/01/06 02:30:39;;;;;;;2.30;1.70;;;;;;;9.33;54.10;96441.19;5050480;28;20059;-66
2023/01/06 02:33:19;;;;;;;3.83;2.30;;;;;;;9.20;54.73;96432.94;5050454;28;20045;-62
2023/01/06 02:36:10;;;;;;;3.03;2.28;;;;;;;9.08;55.34;96438.56;5050363;28;20056;-65
2023/01/06 02:38:58;;;;;;;1.63;1.52;;;;;;;8.94;55.56;96450.31;5050222;28;20053;-62
2023/01/06 02:41:35;;;;;;;11.05;6.10;;;;;;;8.69;56.27;96456.31;5050015;28;20045;-64
2023/01/06 02:44:09;;;;;;;7.85;5.47;;;;;;;8.43;56.87;96457.94;5050367;28;20089;-65
2023/01/06 02:46:56;;;;;;;2.28;1.45;;;;;;;8.22;56.02;96460.31;5050143;28;20110;-64
2023/01/06 02:49:31;;;;;;;3.35;2.47;;;;;;;7.97;57.14;96461.03;5050128;28;20056;-61
2023/01/06 02:52:04;;;;;;;3.15;1.58;;;;;;;7.68;57.58;96460.09;5050087;28;20049;-64
2023/01/06 02:54:41;;;;;;;5.20;3.13;;;;;;;7.49;58.21;96458.91;5050007;28;20418;-66
2023/01/06 02:57:17;;;;;;;3.63;2.10;;;;;;;7.31;58.48;96461.97;5049982;28;20398;-64
2023/01/06 02:59:50;;;;;;;2.03;1.80;;;;;;;7.19;58.80;96463.13;5049993;28;20057;-62
2023/01/06 03:02:19;;;;;;;5.68;3.88;;;;;;;7.11;58.96;96475.50;5049533;28;20451;-64
2023/01/06 03:04:50;;;;;;;10.35;4.55;;;;;;;7.01;59.47;96481.81;5049909;28;20409;-62
2023/01/06 03:07:20;;;;;;;5.50;3.50;;;;;;;6.89;59.64;96470.81;5049909;28;20098;-65
2023/01/06 03:09:48;;;;;;;2.50;1.77;;;;;;;6.77;59.36;96468.53;5049914;28;20053;-65
2023/01/06 03:12:23;;;;;;;6.68;2.78;;;;;;;6.58;60.02;96463.75;5049855;28;20128;-62
2023/01/06 03:14:54;;;;;;;5.72;3.90;;;;;;;6.53;60.86;96470.81;5049802;28;20101;-65
2023/01/06 03:17:22;;;;;;;5.45;3.53;;;;;;;6.38;61.30;96452.06;5049677;28;20085;-65
2023/01/06 03:19:51;;;;;;;18.75;10.45;;;;;;;6.12;62.29;96450.03;5049706;28;20053;-62
2023/01/06 03:22:18;;;;;;;7.32;5.05;;;;;;;6.07;62.62;96450.13;5049769;28;20045;-62
2023/01/06 03:24:46;;;;;;;4.75;2.67;;;;;;;6.00;61.66;96459.78;5049732;28;20048;-64
2023/01/06 03:27:15;;;;;;;10.38;5.53;;;;;;;5.71;63.51;96453.44;5049625;28;20443;-65
2023/01/06 03:29:42;;;;;;;3.03;2.25;;;;;;;5.59;63.72;96459.72;5049611;28;20057;-62
2023/01/06 03:32:17;;;;;;;3.30;2.08;;;;;;;5.47;64.67;96478.09;5049603;28;20071;-63
2023/01/06 03:34:59;;;;;;;3.38;1.73;;;;;;;5.51;64.20;96477.19;5049554;28;20049;-65
2023/01/06 03:37:38;;;;;;;2.35;1.45;;;;;;;5.47;63.78;96480.69;5049445;28;20144;-62
2023/01/06 03:40:13;;;;;;;1.63;1.52;;;;;;;5.42;64.36;96473.88;5049473;28;20120;-66
2023/01/06 03:45:40;;;;;;;5.95;3.40;;;;;;;5.55;63.69;96487.47;5049516;28;20113;-64
2023/01/06 03:48:13;;;;;;;9.63;4.35;;;;;;;5.60;63.97;96483.94;5049689;28;20084;-65
2023/01/06 03:50:48;;;;;;;6.13;3.10;;;;;;;5.44;63.57;96486.81;5049328;28;20041;-61
2023/01/06 03:53:25;;;;;;;8.75;3.55;;;;;;;5.36;64.10;96486.09;5049389;28;20057;-64
2023/01/06 03:56:02;;;;;;;4.78;2.65;;;;;;;5.30;64.37;96503.47;5049345;28;20053;-62
2023/01/06 03:58:30;;;;;;;7.70;3.95;;;;;;;5.13;65.08;96503.78;5049455;28;20057;-62
2023/01/06 04:00:58;;;;;;;4.38;2.63;;;;;;;5.13;65.35;96508.97;5049225;28;20053;-64
2023/01/06 04:03:26;;;;;;;4.72;3.05;;;;;;;5.15;64.97;96512.38;5049168;28;20052;-66
2023/01/06 04:05:55;;;;;;;3.15;1.90;;;;;;;5.09;65.02;96509.88;5049291;28;20080;-61
2023/01/06 04:08:22;;;;;;;3.00;2.30;;;;;;;4.97;65.62;96507.50;5049326;28;20049;-63
2023/01/06 04:10:49;;;;;;;1.95;1.38;;;;;;;4.95;65.43;96501.47;5049361;28;20055;-63
2023/01/06 04:13:15;;;;;;;1.92;1.55;;;;;;;4.79;65.68;96510.34;5050230;28;20045;-62
2023/01/06 04:15:42;;;;;;;2.08;1.40;;;;;;;4.67;66.63;96529.53;5052502;27;20527;-64
2023/01/06 04:18:09;;;;;;;2.38;1.63;;;;;;;4.78;66.72;96541.47;5052534;28;20127;-63
2023/01/06 04:20:37;;;;;;;3.10;1.50;;;;;;;4.77;66.37;96540.63;5052452;28;20045;-63
2023/01/06 04:23:05;;;;;;;1.55;1.00;;;;;;;4.70;65.59;96539.03;5052357;28;20049;-62
2023/01/06 04:25:32;;;;;;;2.05;1.40;;;;;;;4.68;65.51;96538.19;5052408;28;20084;-65
2023/01/06 04:27:59;;;;;;;1.52;1.20;;;;;;;4.70;65.49;96533.84;5052411;28;20129;-65
2023/01/06 04:30:26;;;;;;;1.77;1.20;;;;;;;4.42;65.49;96544.56;5052290;28;20048;-63
2023/01/06 04:32:54;;;;;;;2.15;1.27;;;;;;;4.33;66.00;96545.53;5052270;28;20052;-63
2023/01/06 04:35:21;;;;;;;1.95;1.55;;;;;;;4.24;66.50;96551.69;5052237;28;20049;-64
2023/01/06 04:37:49;;;;;;;2.95;1.48;;;;;;;4.20;67.43;96562.13;5052162;28;20416;-62
2023/01/06 04:40:17;;;;;;;3.28;1.30;;;;;;;4.22;67.00;96562.97;5052113;28;20159;-62
2023/01/06 04:45:29;;;;;;;1.52;1.35;;;;;;;4.15;66.85;96565.63;5052126;28;20064;-65
2023/01/06 04:47:56;;;;;;;1.45;1.35;;;;;;;4.10;66.91;96564.84;5052098;28;20073;-64
2023/01/06 04:50:23;;;;;;;1.80;1.70;;;;;;;4.00;67.66;96565.81;5052088;28;20041;-62
2023/01/06 04:52:51;;;;;;;2.05;1.65;;;;;;;4.04;66.90;96577.84;5051868;28;20049;-64
2023/01/06 04:55:19;;;;;;;4.78;2.33;;;;;;;4.05;67.00;96574.38;5051828;28;20080;-65
2023/01/06 04:57:47;;;;;;;3.05;1.85;;;;;;;4.01;66.23;96583.91;5051815;28;20129;-65
2023/01/06 05:00:15;;;;;;;5.93;3.15;;;;;;;3.95;67.05;96589.16;5051796;28;20406;-63
2023/01/06 05:02:49;;;;;;;5.07;2.63;;;;;;;3.98;67.05;96589.13;5051735;28;20041;-63
2023/01/06 05:05:17;;;;;;;6.40;3.45;;;;;;;4.04;66.83;96585.63;5051720;28;20455;-63
2023/01/06 05:07:44;;;;;;;10.55;3.70;;;;;;;3.98;67.10;96593.44;5051688;28;20049;-62
2023/01/06 05:10:12;;;;;;;10.82;6.75;;;;;;;3.92;67.30;96609.91;5051641;28;20448;-63
2023/01/06 05:12:40;;;;;;;9.43;5.38;;;;;;;3.76;68.08;96630.75;5051411;28;20044;-63
2023/01/06 05:15:09;;;;;;;6.43;4.55;;;;;;;3.88;67.65;96637.53;5051476;28;20052;-64
2023/01/06 05:17:36;;;;;;;3.53;2.20;;;;;;;3.81;66.86;96635.88;5051407;28;20052;-62
2023/01/06 05:20:04;;;;;;;1.77;1.60;;;;;;;3.82;67.71;96631.56;5051538;28;20053;-64
2023/01/06 05:22:32;;;;;;;4.00;3.10;;;;;;;3.77;67.55;96634.22;5051370;28;20045;-64
2023/01/06 05:25:00;;;;;;;2.70;2.25;;;;;;;3.87;67.33;96637.56;5051094;28;20045;-65
2023/01/06 05:27:30;;;;;;;4.03;2.85;;;;;;;3.97;66.74;96633.16;5051449;28;20041;-65
2023/01/06 05:30:00;;;;;;;5.05;1.83;;;;;;;3.92;67.02;96633.19;5051411;28;20056;-65
2023/01/06 05:32:27;;;;;;;4.57;2.50;;;;;;;4.04;66.51;96630.47;5051391;28;20045;-62
2023/01/06 05:34:56;;;;;;;9.48;7.10;;;;;;;4.15;66.38;96622.59;5051206;28;20049;-62
2023/01/06 05:37:23;;;;;;;7.13;4.25;;;;;;;4.23;66.45;96632.00;5050016;28;20052;-64
2023/01/06 05:39:51;;;;;;;6.50;3.30;;;;;;;4.30;65.75;96628.47;5051099;28;20053;-66
2023/01/06 05:42:19;;;;;;;16.25;8.73;;;;;;;4.35;65.44;96623.25;5051020;28;20049;-65
2023/01/06 05:44:47;;;;;;;29.42;15.77;;;;;;;4.37;65.28;96630.09;5051166;28;20052;-65
2023/01/06 05:47:17;;;;;;;22.17;10.80;;;;;;;4.47;65.63;96633.47;5051165;28;20089;-64
2023/01/06 05:49:44;;;;;;;29.00;13.63;;;;;;;4.47;64.80;96633.47;5051009;28;20045;-64
2023/01/06 05:52:12;;;;;;;2.55;2.15;;;;;;;4.45;63.45;96652.50;5051176;27;20523;-63
2023/01/06 05:54:39;;;;;;;4.40;1.88;;;;;;;4.19;64.12;96653.63;5050977;28;20097;-64
2023/01/06 05:57:08;;;;;;;2.35;1.40;;;;;;;3.91;65.02;96653.03;5050792;28;20049;-63
2023/01/06 05:59:36;;;;;;;3.13;1.63;;;;;;;3.94;65.35;96651.31;5050955;28;20097;-63
2023/01/06 06:02:03;;;;;;;12.73;4.15;;;;;;;4.03;64.84;96653.78;5050927;28;20055;-64
2023/01/06 06:04:32;;;;;;;14.50;5.55;;;;;;;4.07;64.55;96652.03;5050835;28;20056;-65
2023/01/06 06:06:59;;;;;;;9.98;4.50;;;;;;;4.06;64.78;96661.53;5050834;28;20410;-64
2023/01/06 06:09:27;;;;;;;22.50;9.65;;;;;;;4.02;64.77;96665.88;5050765;28;20060;-62
2023/01/06 06:11:54;;;;;;;23.58;11.35;;;;;;;4.06;64.97;96665.88;5050708;28;20067;-63
2023/01/06 06:14:22;;;;;;;13.13;6.25;;;;;;;4.03;65.06;96672.78;5050664;28;20436;-63
2023/01/06 06:16:49;;;;;;;55.38;21.25;;;;;;;3.86;65.70;96672.94;5050536;28;20045;-63
2023/01/06 06:19:17;;;;;;;32.78;14.25;;;;;;;3.92;65.78;96669.44;5050691;28;20045;-63
2023/01/06 06:21:46;;;;;;;42.08;17.48;;;;;;;3.84;65.70;96664.34;5050594;28;20137;-61
2023/01/06 06:24:13;;;;;;;19.60;10.20;;;;;;;3.92;66.36;96666.84;5050576;28;20048;-60
2023/01/06 06:26:42;;;;;;;13.07;6.60;;;;;;;4.36;65.85;96669.00;5050416;28;20490;-61
2023/01/06 06:29:12;;;;;;;9.55;3.58;;;;;;;5.71;61.82;96665.41;5050410;28;20045;-63
2023/01/06 06:31:40;;;;;;;4.28;2.67;;;;;;;7.31;57.15;96671.88;5050282;28;20049;-65
2023/01/06 06:34:07;;;;;;;3.42;1.92;;;;;;;9.26;51.84;96687.69;5050468;28;20057;-65
2023/01/06 06:36:34;;;;;;;7.03;3.45;;;;;;;10.95;47.36;96692.56;5049402;28;20049;-64
2023/01/06 06:39:03;;;;;;;3.33;2.00;;;;;;;12.61;44.03;96689.47;5050268;28;20055;-67
2023/01/06 06:41:30;;;;;;;4.25;2.60;;;;;;;13.87;40.31;96704.78;5049994;28;20051;-64
2023/01/06 06:43:57;;;;;;;1.50;1.10;;;;;;;14.53;35.97;96694.53;5050246;28;20045;-67
2023/01/06 06:46:24;;;;;;;2.78;1.38;;;;;;;15.77;35.48;96693.25;5050131;28;20045;-65
2023/01/06 06:48:52;;;;;;;1.85;1.15;;;;;;;16.86;33.13;96696.66;5050124;28;20041;-64
2023/01/06 06:51:20;;;;;;;2.20;1.38;;;;;;;18.31;31.32;96698.16;5050210;28;20049;-66
2023/01/06 06:53:47;;;;;;;1.55;1.08;;;;;;;19.26;29.69;96694.38;5050158;28;20098;-67
2023/01/06 06:56:17;;;;;;;1.85;1.15;;;;;;;18.86;28.68;96698.00;5050025;28;20140;-63
2023/01/06 06:58:45;;;;;;;1.30;1.00;;;;;;;19.83;28.71;96710.66;5050008;28;20049;-63
2023/01/06 07:01:14;;;;;;;1.55;0.82;;;;;;;20.96;26.62;96711.19;5050086;28;20059;-65
2023/01/06 07:03:41;;;;;;;1.55;1.08;;;;;;;21.86;25.97;96702.44;5050085;28;20049;-63
2023/01/06 07:06:11;;;;;;;1.60;1.42;;;;;;;22.79;24.39;96704.56;5050103;28;20068;-65
2023/01/06 07:08:39;;;;;;;4.82;0.93;;;;;;;23.65;23.61;96707.06;5049933;28;20129;-65
2023/01/06 07:11:06;;;;;;;1.95;1.00;;;;;;;24.02;22.20;96702.91;5049969;28;20057;-65
2023/01/06 07:13:34;;;;;;;1.77;1.23;;;;;;;24.89;21.82;96707.56;5049979;28;20479;-65
2023/01/06 07:16:02;;;;;;;2.72;2.00;;;;;;;24.84;20.71;96708.78;5049879;28;20072;-66
2023/01/06 07:18:29;;;;;;;1.65;1.05;;;;;;;24.18;20.82;96721.94;5049687;28;20060;-63
2023/01/06 07:20:56;;;;;;;3.35;1.90;;;;;;;23.56;22.82;96719.41;5049696;28;20053;-63
2023/01/06 07:23:24;;;;;;;3.47;2.15;;;;;;;24.23;22.95;96725.03;5049760;28;20045;-65
2023/01/06 07:25:53;;;;;;;2.33;1.83;;;;;;;24.83;22.50;96730.34;5049988;28;20053;-66
2023/01/06 07:28:20;;;;;;;2.55;1.92;;;;;;;24.96;20.75;96725.53;5049608;28;20049;-66
2023/01/06 07:30:49;;;;;;;3.58;1.65;;;;;;;25.43;21.22;96739.88;5049664;28;20410;-63
2023/01/06 07:33:17;;;;;;;3.45;2.22;;;;;;;24.86;22.20;96744.25;5049693;28;20495;-68
2023/01/06 07:35:44;;;;;;;2.75;2.30;;;;;;;25.07;21.20;96753.13;5049633;28;20044;-66
2023/01/06 07:38:11;;;;;;;6.47;2.80;;;;;;;24.85;21.81;96745.25;5049624;28;20105;-62
2023/01/06 07:40:39;;;;;;;4.93;2.90;;;;;;;25.45;21.76;96758.47;5049526;28;20124;-66
2023/01/06 07:43:07;;;;;;;3.78;3.00;;;;;;;26.30;21.18;96762.00;5049327;28;20056;-65
2023/01/06 07:45:36;;;;;;;3.30;2.72;;;;;;;26.45;21.17;96765.84;5049595;28;20406;-64
2023/01/06 07:48:05;;;;;;;3.95;2.10;;;;;;;27.21;20.07;96772.66;5051748;28;20064;-65
2023/01/06 07:50:33;;;;;;;2.90;2.23;;;;;;;26.95;19.90;96768.94;5052929;28;20045;-65
2023/01/06 07:53:02;;;;;;;3.40;2.40;;;;;;;27.53;19.71;96775.66;5052790;28;20140;-65
2023/01/06 07:55:30;;;;;;;3.88;2.30;;;;;;;28.50;18.34;96783.41;5052756;28;20128;-67
2023/01/06 07:57:58;;;;;;;2.75;1.85;;;;;;;29.07;17.41;96789.00;5052716;28;20488;-65
2023/01/06 08:00:25;;;;;;;2.63;2.15;;;;;;;29.44;17.36;96775.97;5052730;28;20409;-63
2023/01/06 08:02:53;;;;;;;3.40;2.35;;;;;;;29.09;17.38;96778.91;5052718;28;20053;-66
2023/01/06 08:05:27;;;;;;;4.82;2.40;;;;;;;29.27;17.33;96788.63;5052611;28;20077;-65
2023/01/06 08:07:58;;;;;;;2.33;1.90;;;;;;;29.55;17.10;96785.56;5052683;28;20479;-66
2023/01/06 08:10:27;;;;;;;2.95;2.22;;;;;;;29.32;17.35;96791.66;5052530;28;20088;-67
2023/01/06 08:12:54;;;;;;;5.35;2.70;;;;;;;28.35;18.49;96787.78;5052530;28;20502;-64
2023/01/06 08:15:25;;;;;;;4.95;2.60;;;;;;;28.12;18.67;96791.88;5052637;28;20406;-64
2023/01/06 08:17:53;;;;;;;5.00;3.20;;;;;;;27.87;19.23;96782.88;5052363;28;20080;-61
2023/01/06 08:20:28;;;;;;;4.80;2.90;;;;;;;27.19;19.37;96788.91;5052381;28;20045;-66
2023/01/06 08:22:57;;;;;;;2.85;2.33;;;;;;;27.67;19.47;96793.91;5052363;28;20092;-64
2023/01/06 08:25:25;;;;;;;2.95;2.28;;;;;;;28.24;18.69;96805.84;5052282;28;20045;-63
2023/01/06 08:27:52;;;;;;;6.78;3.15;;;;;;;27.38;19.68;96808.47;5052329;28;20058;-62
2023/01/06 08:30:20;;;;;;;4.85;3.10;;;;;;;26.00;21.54;96805.03;5052310;28;20045;-63
2023/01/06 08:32:48;;;;;;;3.25;2.47;;;;;;;25.54;21.79;96807.63;5052340;28;20053;-62
2023/01/06 08:35:15;;;;;;;3.70;2.60;;;;;;;24.86;22.05;96811.13;5052239;28;20199;-66
2023/01/06 08:37:44;;;;;;;4.15;2.70;;;;;;;24.06;23.37;96803.16;5052096;28;20141;-66
2023/01/06 08:40:12;;;;;;;5.10;2.40;;;;;;;23.51;23.58;96791.03;5052058;28;20081;-64
2023/01/06 08:42:40;;;;;;;2.25;2.00;;;;;;;23.09;24.25;96790.09;5051773;28;20793;-63
2023/01/06 08:45:08;;;;;;;3.28;2.97;;;;;;;22.97;24.39;96792.00;5051933;28;20041;-64
2023/01/06 08:47:36;;;;;;;2.50;2.30;;;;;;;23.01;24.80;96801.41;5052088;28;20140;-62
2023/01/06 08:50:04;;;;;;;2.28;2.00;;;;;;;22.52;24.84;96793.03;5052025;28;20123;-65
2023/01/06 08:52:32;;;;;;;3.00;2.08;;;;;;;22.02;24.78;96802.34;5052031;28;20144;-63
2023/01/06 08:55:01;;;;;;;2.28;1.88;;;;;;;21.56;24.82;96805.03;5051882;28;20056;-64
2023/01/06 08:57:28;;;;;;;2.33;1.65;;;;;;;21.11;25.17;96803.19;5051808;28;20041;-63
2023/01/06 08:59:55;;;;;;;2.13;1.80;;;;;;;20.45;25.87;96806.22;5051130;28;20049;-62
2023/01/06 09:02:26;;;;;;;2.72;2.33;;;;;;;19.42;28.94;96804.69;5051810;28;20083;-65
2023/01/06 09:04:53;;;;;;;3.17;2.25;;;;;;;19.11;29.34;96802.34;5051819;28;20406;-61
2023/01/06 09:07:20;;;;;;;2.10;1.90;;;;;;;18.82;29.84;96805.16;5051787;28;20128;-66
2023/01/06 09:09:48;;;;;;;2.40;1.95;;;;;;;18.59;30.91;96814.63;5051670;28;20049;-63
2023/01/06 09:12:17;;;;;;;3.45;2.65;;;;;;;18.02;31.84;96799.69;5051564;28;20094;-62
2023/01/06 09:14:44;;;;;;;3.72;2.30;;;;;;;17.36;32.54;96804.66;5051729;27;20414;-62
2023/01/06 09:17:11;;;;;;;3.35;2.45;;;;;;;17.19;32.58;96798.66;5051456;28;20061;-65
2023/01/06 09:19:39;;;;;;;3.60;2.63;;;;;;;17.01;33.37;96793.47;5051500;28;20555;-61
2023/01/06 09:22:07;;;;;;;2.65;2.03;;;;;;;16.90;32.38;96785.34;5051426;28;20054;-64
2023/01/06 09:24:35;;;;;;;2.78;1.90;;;;;;;16.71;32.68;96794.38;5051443;28;20502;-65
2023/01/06 09:27:02;;;;;;;31.42;8.68;;;;;;;16.44;33.68;96802.97;5051386;28;20052;-63
2023/01/06 09:29:31;;;;;;;3.05;2.10;;;;;;;15.92;33.64;96800.53;5051279;28;20071;-65
2023/01/06 09:31:59;;;;;;;6.28;2.30;;;;;;;15.70;34.17;96806.13;5051279;28;20049;-63
2023/01/06 09:34:26;;;;;;;3.17;2.35;;;;;;;15.59;34.73;96798.81;5051398;28;20116;-65
2023/01/06 09:36:54;;;;;;;5.50;2.58;;;;;;;15.11;37.72;96794.28;5051300;28;20475;-63
2023/01/06 09:39:21;;;;;;;2.60;2.20;;;;;;;15.12;38.06;96789.88;5051239;28;20411;-65
2023/01/06 09:42:21;;;;;;;3.25;2.38;;;;;;;14.87;38.01;96785.91;5050921;28;20136;-65
2023/01/06 09:44:56;;;;;;;3.47;1.80;;;;;;;14.91;35.88;96780.38;5052558;28;20045;-64
2023/01/06 09:47:30;;;;;;;4.00;2.20;;;;;;;14.84;36.05;96786.06;5051176;28;20041;-64
2023/01/06 09:50:03;;;;;;;2.60;2.35;;;;;;;14.97;36.90;96771.31;5051183;28;20045;-63
2023/01/06 09:52:37;;;;;;;3.30;2.33;;;;;;;15.05;37.04;96770.06;5050900;28;20093;-63
2023/01/06 09:55:08;;;;;;;2.97;2.17;;;;;;;15.11;37.81;96773.22;5050972;28;20049;-66
2023/01/06 09:57:39;;;;;;;2.97;2.20;;;;;;;14.95;37.17;96770.53;5050882;28;20476;-66
2023/01/06 10:00:19;;;;;;;3.28;2.05;;;;;;;14.93;36.88;96775.03;5050954;28;20540;-63
2023/01/06 10:02:47;;;;;;;2.83;1.58;;;;;;;15.08;35.82;96775.16;5050945;28;20049;-66
2023/01/06 10:05:20;;;;;;;2.63;1.95;;;;;;;14.98;35.49;96766.88;5050814;28;20049;-66
2023/01/06 10:07:57;;;;;;;2.15;1.75;;;;;;;14.91;34.95;96755.81;5050791;28;20053;-65
2023/01/06 10:10:34;;;;;;;2.78;1.48;;;;;;;14.82;35.76;96748.41;5049658;28;20061;-66
2023/01/06 10:13:25;;;;;;;2.00;1.60;;;;;;;14.90;33.90;96744.44;5050708;28;20060;-63
2023/01/06 10:16:04;;;;;;;2.70;1.75;;;;;;;14.90;34.73;96752.34;5050664;28;20496;-64
2023/01/06 10:18:43;;;;;;;2.53;1.45;;;;;;;14.96;33.83;96751.16;5050510;28;20451;-64
2023/01/06 10:21:17;;;;;;;3.30;1.30;;;;;;;14.99;34.54;96753.63;5050653;28;20041;-63
2023/01/06 10:24:27;;;;;;;1.95;1.45;;;;;;;15.00;33.50;96742.19;5050514;28;20094;-63
2023/01/06 10:26:58;;;;;;;3.95;1.40;;;;;;;15.13;34.54;96738.88;5071330;28;20044;-67
2023/01/06 10:29:31;;;;;;;3.15;1.70;;;;;;;15.29;34.17;96752.06;5071303;28;20150;-62
2023/01/06 10:32:02;;;;;;;2.40;1.45;;;;;;;15.29;32.85;96754.72;5059195;28;20037;-63
2023/01/06 10:34:30;;;;;;;0.80;0.80;;;;;;;15.20;29.64;96750.78;5050535;28;20140;-65
2023/01/06 10:37:02;;;;;;;1.00;0.88;;;;;;;15.19;30.32;96746.47;5050425;28;20398;-64
2023/01/06 10:39:31;;;;;;;2.15;0.90;;;;;;;15.10;29.52;96752.22;5050213;28;20052;-63
2023/01/06 10:44:51;;;;;;;1.40;0.93;;;;;;;15.20;31.02;96752.59;5050300;28;20056;-63
2023/01/06 10:47:25;;;;;;;0.82;0.82;;;;;;;15.13;31.22;96729.19;5050228;28;20049;-65
2023/01/06 10:49:52;;;;;;;0.50;0.50;;;;;;;15.08;29.73;96748.81;5050114;28;20132;-67
2023/01/06 10:52:22;;;;;;;0.75;0.70;;;;;;;14.97;29.94;96746.75;5050181;28;20053;-65
2023/01/06 10:54:52;;;;;;;1.40;0.98;;;;;;;14.94;29.09;96744.28;5050182;28;20094;-65
2023/01/06 10:57:25;;;;;;;4.57;0.70;;;;;;;14.91;29.43;96740.84;5050136;28;20048;-63
2023/01/06 11:00:14;;;;;;;2.67;0.80;;;;;;;14.81;30.34;96729.09;5049977;28;20057;-64
2023/01/06 11:02:48;;;;;;;0.90;0.77;;;;;;;14.71;30.21;96733.13;5050010;28;20049;-63
2023/01/06 11:05:18;;;;;;;0.70;0.70;;;;;;;14.67;30.12;96724.53;5049909;28;20049;-66
2023/01/06 11:07:57;;;;;;;2.78;1.00;;;;;;;14.48;30.51;96727.28;5049982;28;20041;-64
2023/01/06 11:10:36;;;;;;;0.95;0.77;;;;;;;14.35;30.52;96727.03;5049920;28;20056;-66
2023/01/06 11:13:04;;;;;;;1.05;0.95;;;;;;;14.42;30.72;96719.69;5049954;28;20053;-63
2023/01/06 11:15:38;;;;;;;2.53;0.70;;;;;;;14.54;29.60;96724.31;5049941;28;20109;-65
2023/01/06 11:18:19;;;;;;;0.80;0.80;;;;;;;14.53;30.28;96717.34;5049707;28;20055;-65
2023/01/06 11:21:02;;;;;;;1.15;0.70;;;;;;;14.58;30.14;96725.88;5049759;28;20056;-67
2023/01/06 11:23:29;;;;;;;0.57;0.52;;;;;;;14.50;29.98;96725.41;5052852;28;20041;-66
2023/01/06 11:26:16;;;;;;;0.90;0.80;;;;;;;14.57;29.57;96716.25;5053268;28;20106;-64
2023/01/06 11:28:45;;;;;;;0.70;0.70;;;;;;;14.37;29.83;96704.97;5053286;28;20076;-63
2023/01/06 11:31:19;;;;;;;0.95;0.85;;;;;;;14.51;30.53;96716.59;5053284;27;20053;-64
2023/01/06 11:33:51;;;;;;;1.55;0.80;;;;;;;14.60;29.56;96715.25;5053191;28;20099;-64
2023/01/06 11:36:21;;;;;;;0.95;0.70;;;;;;;14.70;29.56;96720.91;5053151;28;20049;-64
2023/01/06 11:38:51;;;;;;;2.25;0.70;;;;;;;14.63;28.63;96723.00;5053040;28;20049;-63
2023/01/06 11:41:25;;;;;;;1.10;0.50;;;;;;;14.60;28.98;96726.63;5052938;28;20094;-62
2023/01/06 11:43:56;;;;;;;0.50;0.50;;;;;;;14.48;29.07;96732.53;5052988;28;20044;-62
2023/01/06 11:46:25;;;;;;;2.25;0.75;;;;;;;14.42;29.35;96727.56;5052948;28;20049;-66
2023/01/06 11:49:01;;;;;;;0.75;0.70;;;;;;;14.33;29.47;96724.47;5053003;28;20124;-64
2023/01/06 11:51:44;;;;;;;2.15;0.65;;;;;;;14.29;29.43;96730.81;5052972;28;20049;-67
2023/01/06 11:54:23;;;;;;;0.90;0.70;;;;;;;14.37;29.09;96746.22;5053010;28;20060;-62
2023/01/06 11:56:58;;;;;;;1.38;0.70;;;;;;;14.34;29.39;96738.47;5052807;28;20136;-65
2023/01/06 11:59:32;;;;;;;0.70;0.70;;;;;;;14.35;29.39;96733.16;5052761;28;20091;-65
2023/01/06 12:02:00;;;;;;;0.50;0.50;;;;;;;14.34;29.08;96725.31;5052667;28;20053;-64
2023/01/06 12:04:37;;;;;;;1.75;0.80;;;;;;;14.37;29.28;96720.78;5052729;28;20059;-63